createdAt,value
2023-03-08T00:01:22.598Z,10.50
2023-03-08T00:03:58.411Z,10.40
2023-03-08T00:06:27.042Z,10.30
2023-03-08T00:08:56.320Z,10.30
2023-03-08T00:11:23.730Z,10.20
2023-03-08T00:13:51.085Z,10.20
2023-03-08T00:16:18.894Z,10.20
2023-03-08T00:18:46.265Z,10.20
2023-03-08T00:21:16.013Z,10.20
2023-03-08T00:23:44.229Z,10.20
2023-03-08T00:26:12.373Z,10.10
2023-03-08T00:28:40.856Z,10.10
2023-03-08T00:31:10.957Z,10.00
2023-03-08T00:33:38.792Z,9.80
2023-03-08T00:36:10.345Z,9.70
2023-03-08T00:38:38.225Z,9.70
2023-03-08T00:41:05.867Z,9.70
2023-03-08T00:43:33.494Z,9.70
2023-03-08T00:46:05.071Z,9.60
2023-03-08T00:48:34.151Z,9.50
2023-03-08T00:51:01.517Z,9.50
2023-03-08T00:53:28.747Z,9.50
2023-03-08T00:55:58.443Z,9.50
2023-03-08T00:58:29.164Z,9.50
2023-03-08T01:00:56.512Z,9.50
2023-03-08T01:03:24.580Z,9.50
2023-03-08T01:05:54.764Z,9.50
2023-03-08T01:08:23.205Z,9.50
2023-03-08T01:11:00.858Z,9.50
2023-03-08T01:13:33.603Z,9.50
2023-03-08T01:16:02.156Z,9.50
2023-03-08T01:18:29.702Z,9.40
2023-03-08T01:21:02.948Z,9.40
2023-03-08T01:23:31.726Z,9.40
2023-03-08T01:26:01.510Z,9.40
2023-03-08T01:28:29.332Z,9.30
2023-03-08T01:31:07.833Z,9.30
2023-03-08T01:33:37.472Z,9.30
2023-03-08T01:36:09.573Z,9.20
2023-03-08T01:38:37.549Z,9.20
2023-03-08T01:41:06.191Z,9.10
2023-03-08T01:43:38.886Z,9.10
2023-03-08T01:46:26.816Z,9.10
2023-03-08T01:49:10.147Z,9.10
2023-03-08T01:51:47.320Z,9.00
2023-03-08T01:54:19.203Z,9.00
2023-03-08T01:56:49.368Z,8.90
2023-03-08T01:59:18.036Z,8.90
2023-03-08T02:01:47.910Z,8.90
2023-03-08T02:04:15.608Z,8.90
2023-03-08T02:06:45.517Z,8.90
2023-03-08T02:09:14.548Z,8.80
2023-03-08T02:11:43.098Z,8.80
2023-03-08T02:14:10.806Z,8.70
2023-03-08T02:16:41.973Z,8.80
2023-03-08T02:19:20.714Z,8.70
2023-03-08T02:21:48.884Z,8.70
2023-03-08T02:24:24.478Z,8.80
2023-03-08T02:27:00.543Z,8.70
2023-03-08T02:29:28.059Z,8.70
2023-03-08T02:31:55.308Z,8.70
2023-03-08T02:34:22.580Z,8.70
2023-03-08T02:36:49.914Z,8.70
2023-03-08T02:39:18.750Z,8.60
2023-03-08T02:41:45.941Z,8.50
2023-03-08T02:44:14.178Z,8.40
2023-03-08T02:46:41.543Z,8.40
2023-03-08T02:49:09.091Z,8.50
2023-03-08T02:51:36.393Z,8.50
2023-03-08T02:54:03.808Z,8.50
2023-03-08T02:56:31.199Z,8.40
2023-03-08T02:58:58.447Z,8.40
2023-03-08T03:01:26.182Z,8.40
2023-03-08T03:03:56.486Z,8.30
2023-03-08T03:06:23.901Z,8.30
2023-03-08T03:08:55.060Z,8.20
2023-03-08T03:11:23.651Z,8.20
2023-03-08T03:13:57.291Z,8.20
2023-03-08T03:16:28.488Z,8.20
2023-03-08T03:18:56.567Z,8.20
2023-03-08T03:21:24.629Z,8.30
2023-03-08T03:23:53.760Z,8.20
2023-03-08T03:26:25.885Z,8.20
2023-03-08T03:28:58.008Z,8.20
2023-03-08T03:31:28.696Z,8.20
2023-03-08T03:33:56.034Z,8.20
2023-03-08T03:36:26.360Z,8.20
2023-03-08T03:38:54.125Z,8.20
2023-03-08T03:41:23.492Z,8.20
2023-03-08T03:43:59.839Z,8.10
2023-03-08T03:46:27.725Z,8.20
2023-03-08T03:48:57.713Z,8.20
2023-03-08T03:51:27.778Z,8.10
2023-03-08T03:54:07.473Z,8.10
2023-03-08T03:56:35.692Z,8.10
2023-03-08T03:59:03.623Z,8.00
2023-03-08T04:01:32.396Z,7.90
2023-03-08T04:04:20.051Z,7.80
2023-03-08T04:06:48.395Z,7.80
2023-03-08T04:09:19.331Z,7.80
2023-03-08T04:11:54.294Z,7.80
2023-03-08T04:14:22.712Z,7.80
2023-03-08T04:16:51.669Z,7.80
2023-03-08T04:19:26.856Z,7.80
2023-03-08T04:21:57.205Z,7.80
2023-03-08T04:24:28.886Z,7.80
2023-03-08T04:27:01.026Z,7.80
2023-03-08T04:29:29.230Z,7.80
2023-03-08T04:32:00.164Z,7.70
2023-03-08T04:34:33.736Z,7.60
2023-03-08T04:37:02.436Z,7.60
2023-03-08T04:39:30.183Z,7.50
2023-03-08T04:41:57.702Z,7.50
2023-03-08T04:44:31.492Z,7.60
2023-03-08T04:46:59.404Z,7.50
2023-03-08T04:49:34.411Z,7.40
2023-03-08T04:52:03.867Z,7.40
2023-03-08T04:54:33.871Z,7.40
2023-03-08T04:57:05.483Z,7.40
2023-03-08T04:59:34.786Z,7.40
2023-03-08T05:02:04.451Z,7.40
2023-03-08T05:04:34.777Z,7.40
2023-03-08T05:07:02.083Z,7.40
2023-03-08T05:09:33.114Z,7.40
2023-03-08T05:12:00.649Z,7.40
2023-03-08T05:14:36.725Z,7.40
2023-03-08T05:17:04.245Z,7.40
2023-03-08T05:19:35.032Z,7.50
2023-03-08T05:22:02.365Z,7.50
2023-03-08T05:24:31.283Z,7.40
2023-03-08T05:27:02.069Z,7.50
2023-03-08T05:29:29.335Z,7.60
2023-03-08T05:31:58.792Z,7.60
2023-03-08T05:34:26.101Z,7.60
2023-03-08T05:36:53.374Z,7.60
2023-03-08T05:39:20.679Z,7.60
2023-03-08T05:41:58.602Z,7.60
2023-03-08T05:44:30.622Z,7.60
2023-03-08T05:46:59.835Z,7.60
2023-03-08T05:49:29.597Z,7.60
2023-03-08T05:51:57.653Z,7.60
2023-03-08T05:54:26.583Z,7.60
2023-03-08T05:56:58.053Z,7.70
2023-03-08T05:59:27.173Z,7.70
2023-03-08T06:01:58.280Z,7.70
2023-03-08T06:04:42.536Z,7.70
2023-03-08T06:07:11.397Z,7.70
2023-03-08T06:09:43.470Z,7.70
2023-03-08T06:12:14.941Z,7.80
2023-03-08T06:14:44.365Z,7.80
2023-03-08T06:17:13.123Z,7.80
2023-03-08T06:19:44.108Z,7.90
2023-03-08T06:22:12.630Z,8.00
2023-03-08T06:24:40.808Z,8.20
2023-03-08T06:27:09.388Z,8.40
2023-03-08T06:29:39.223Z,8.50
2023-03-08T06:32:07.146Z,8.60
2023-03-08T06:34:34.743Z,8.70
2023-03-08T06:37:02.502Z,8.80
2023-03-08T06:39:32.065Z,8.60
2023-03-08T06:42:03.933Z,8.30
2023-03-08T06:44:31.726Z,8.00
2023-03-08T06:46:59.019Z,7.80
2023-03-08T06:49:26.510Z,7.70
2023-03-08T06:51:54.531Z,7.90
2023-03-08T06:54:24.206Z,8.20
2023-03-08T06:56:51.489Z,8.40
2023-03-08T06:59:18.834Z,8.60
2023-03-08T07:01:46.104Z,8.90
2023-03-08T07:04:13.639Z,9.00
2023-03-08T07:06:40.962Z,8.90
2023-03-08T07:09:08.257Z,9.00
2023-03-08T07:11:38.770Z,8.90
2023-03-08T07:14:06.254Z,8.80
2023-03-08T07:16:33.581Z,8.70
2023-03-08T07:19:02.804Z,8.90
2023-03-08T07:21:30.248Z,9.10
2023-03-08T07:23:57.513Z,9.40
2023-03-08T07:26:24.784Z,9.70
2023-03-08T07:28:52.015Z,10.00
2023-03-08T07:31:19.343Z,10.10
2023-03-08T07:33:46.982Z,10.40
2023-03-08T07:36:14.333Z,10.90
2023-03-08T07:38:41.588Z,11.30
2023-03-08T07:41:08.944Z,11.40
2023-03-08T07:43:36.240Z,11.60
2023-03-08T07:46:09.503Z,11.80
2023-03-08T07:48:37.019Z,11.90
2023-03-08T07:51:07.352Z,12.20
2023-03-08T07:53:35.717Z,12.40
2023-03-08T07:56:03.534Z,12.70
2023-03-08T07:58:30.899Z,12.80
2023-03-08T08:00:58.169Z,12.90
2023-03-08T08:03:25.649Z,12.90
2023-03-08T08:05:52.995Z,12.80
2023-03-08T08:08:20.366Z,12.90
2023-03-08T08:10:47.677Z,13.00
2023-03-08T08:13:14.866Z,13.40
2023-03-08T08:15:42.113Z,13.70
2023-03-08T08:18:09.431Z,13.80
2023-03-08T08:20:36.783Z,13.90
2023-03-08T08:23:07.583Z,14.20
2023-03-08T08:25:34.827Z,14.30
2023-03-08T08:28:02.164Z,14.40
2023-03-08T08:30:29.496Z,14.70
2023-03-08T08:32:57.450Z,15.00
2023-03-08T08:35:34.109Z,15.40
2023-03-08T08:38:09.628Z,15.60
2023-03-08T08:40:37.331Z,15.90
2023-03-08T08:43:04.539Z,16.10
2023-03-08T08:45:31.833Z,16.30
2023-03-08T08:47:59.127Z,16.60
2023-03-08T08:50:26.474Z,16.60
2023-03-08T08:52:53.758Z,16.40
2023-03-08T08:55:21.028Z,16.50
2023-03-08T08:57:48.303Z,16.70
2023-03-08T09:00:16.167Z,16.80
2023-03-08T09:02:43.516Z,16.60
2023-03-08T09:05:11.008Z,16.60
2023-03-08T09:07:39.337Z,16.40
2023-03-08T09:10:07.812Z,16.50
2023-03-08T09:12:35.172Z,16.20
2023-03-08T09:15:02.545Z,16.00
2023-03-08T09:17:30.541Z,16.00
2023-03-08T09:19:57.817Z,15.90
2023-03-08T09:22:26.494Z,15.80
2023-03-08T09:24:53.965Z,15.60
2023-03-08T09:27:21.313Z,15.50
2023-03-08T09:29:49.014Z,15.70
2023-03-08T09:32:16.542Z,15.80
2023-03-08T09:34:43.848Z,16.00
2023-03-08T09:37:11.899Z,16.10
2023-03-08T09:39:40.555Z,15.90
2023-03-08T09:42:20.558Z,15.80
2023-03-08T09:45:08.643Z,15.90
2023-03-08T09:47:48.858Z,15.60
2023-03-08T09:50:35.800Z,15.40
2023-03-08T09:53:24.573Z,15.10
2023-03-08T09:56:15.072Z,15.00
2023-03-08T09:58:51.661Z,14.80
2023-03-08T10:01:40.429Z,14.80
2023-03-08T10:04:42.331Z,14.70
2023-03-08T10:07:34.117Z,14.70
2023-03-08T10:10:30.784Z,14.80
2023-03-08T10:13:07.848Z,14.80
2023-03-08T10:15:41.900Z,14.80
2023-03-08T10:18:30.902Z,14.90
2023-03-08T10:21:00.713Z,14.90
2023-03-08T10:23:34.922Z,15.00
2023-03-08T10:26:05.316Z,15.20
2023-03-08T10:28:32.540Z,15.40
2023-03-08T10:31:04.800Z,15.50
2023-03-08T10:33:35.111Z,15.40
2023-03-08T10:36:17.071Z,15.30
2023-03-08T10:38:55.423Z,15.20
2023-03-08T10:41:22.789Z,15.30
2023-03-08T10:43:55.419Z,15.60
2023-03-08T10:46:33.820Z,15.80
2023-03-08T10:49:09.419Z,15.90
2023-03-08T10:51:36.900Z,16.30
2023-03-08T10:54:06.462Z,16.50
2023-03-08T10:56:40.246Z,16.60
2023-03-08T10:59:17.968Z,16.70
2023-03-08T11:01:59.077Z,16.70
2023-03-08T11:04:28.534Z,17.10
2023-03-08T11:06:56.111Z,17.40
2023-03-08T11:09:29.877Z,17.50
2023-03-08T11:11:58.759Z,17.70
2023-03-08T11:14:27.612Z,17.50
2023-03-08T11:17:23.460Z,17.60
2023-03-08T11:20:00.608Z,17.70
2023-03-08T11:22:42.852Z,17.60
2023-03-08T11:25:13.031Z,17.80
2023-03-08T11:28:02.015Z,17.70
2023-03-08T11:30:29.291Z,17.90
2023-03-08T11:33:11.116Z,17.80
2023-03-08T11:35:49.185Z,17.20
2023-03-08T11:38:21.772Z,17.00
2023-03-08T11:41:07.311Z,16.90
2023-03-08T11:44:02.466Z,16.70
2023-03-08T11:46:58.084Z,16.70
2023-03-08T11:49:44.124Z,16.90
2023-03-08T11:52:42.130Z,17.10
2023-03-08T11:55:28.079Z,17.30
2023-03-08T11:58:10.548Z,17.40
2023-03-08T12:00:41.237Z,17.40
2023-03-08T12:03:16.470Z,17.40
2023-03-08T12:05:57.564Z,17.40
2023-03-08T12:08:34.183Z,17.20
2023-03-08T12:11:13.411Z,17.10
2023-03-08T12:13:45.946Z,17.10
2023-03-08T12:16:25.077Z,17.10
2023-03-08T12:19:20.840Z,17.10
2023-03-08T12:22:12.074Z,17.10
2023-03-08T12:24:53.140Z,17.20
2023-03-08T12:27:41.059Z,16.90
2023-03-08T12:30:15.649Z,17.00
2023-03-08T12:32:44.331Z,17.10
2023-03-08T12:35:20.506Z,17.30
2023-03-08T12:37:56.513Z,17.20
2023-03-08T12:40:28.583Z,17.20
2023-03-08T12:43:08.196Z,17.20
2023-03-08T12:45:35.845Z,17.10
2023-03-08T12:48:06.027Z,17.10
2023-03-08T12:50:44.262Z,17.20
2023-03-08T12:53:37.607Z,17.40
2023-03-08T12:56:09.836Z,17.10
2023-03-08T12:58:39.786Z,17.10
2023-03-08T13:01:23.771Z,17.00
2023-03-08T13:03:51.163Z,17.00
2023-03-08T13:06:25.767Z,16.90
2023-03-08T13:09:18.220Z,16.90
2023-03-08T13:11:51.675Z,17.10
2023-03-08T13:14:26.158Z,17.40
2023-03-08T13:16:53.974Z,17.10
2023-03-08T13:19:25.076Z,16.90
2023-03-08T13:22:16.371Z,16.80
2023-03-08T13:25:01.689Z,16.80
2023-03-08T13:27:48.090Z,16.90
2023-03-08T13:30:18.628Z,16.90
2023-03-08T13:32:47.905Z,16.80
2023-03-08T13:35:17.082Z,16.90
2023-03-08T13:37:53.177Z,16.80
2023-03-08T13:40:21.384Z,16.90
2023-03-08T13:43:10.869Z,16.90
2023-03-08T13:45:38.191Z,16.90
2023-03-08T13:48:08.839Z,16.90
2023-03-08T13:50:42.002Z,16.90
2023-03-08T13:53:15.357Z,17.10
2023-03-08T13:55:46.576Z,17.20
2023-03-08T13:58:20.091Z,17.10
2023-03-08T14:01:00.941Z,17.00
2023-03-08T14:03:31.994Z,17.10
2023-03-08T14:05:59.883Z,17.00
2023-03-08T14:08:28.066Z,16.90
2023-03-08T14:11:05.918Z,17.10
2023-03-08T14:13:37.221Z,17.00
2023-03-08T14:16:22.267Z,17.20
2023-03-08T14:18:49.694Z,17.10
2023-03-08T14:21:20.265Z,17.10
2023-03-08T14:23:50.737Z,17.20
2023-03-08T14:26:33.903Z,17.10
2023-03-08T14:29:21.742Z,17.10
2023-03-08T14:32:05.580Z,17.00
2023-03-08T14:34:36.442Z,17.00
2023-03-08T14:37:06.052Z,17.00
2023-03-08T14:39:35.325Z,16.80
2023-03-08T14:42:32.068Z,16.80
2023-03-08T14:45:05.357Z,16.80
2023-03-08T14:47:35.654Z,16.90
2023-03-08T14:50:25.609Z,16.80
2023-03-08T14:52:55.838Z,16.80
2023-03-08T14:55:30.013Z,16.70
2023-03-08T14:58:03.305Z,16.60
2023-03-08T15:00:31.911Z,16.50
2023-03-08T15:03:00.456Z,16.40
2023-03-08T15:05:30.063Z,16.40
2023-03-08T15:07:59.664Z,16.40
2023-03-08T15:10:37.193Z,16.40
2023-03-08T15:13:25.566Z,16.50
2023-03-08T15:15:52.940Z,16.50
2023-03-08T15:18:20.864Z,16.40
2023-03-08T15:20:50.251Z,16.30
2023-03-08T15:23:24.029Z,16.30
2023-03-08T15:25:51.703Z,16.20
2023-03-08T15:28:21.095Z,16.20
2023-03-08T15:30:49.641Z,16.10
2023-03-08T15:33:16.847Z,16.00
2023-03-08T15:35:44.532Z,16.00
2023-03-08T15:38:16.646Z,16.00
2023-03-08T15:40:44.135Z,15.90
2023-03-08T15:43:11.682Z,15.90
2023-03-08T15:45:38.991Z,15.90
2023-03-08T15:48:17.577Z,15.80
2023-03-08T15:50:45.602Z,15.70
2023-03-08T15:53:18.526Z,15.60
2023-03-08T15:55:50.721Z,15.60
2023-03-08T15:58:18.019Z,15.70
2023-03-08T16:00:45.356Z,15.60
2023-03-08T16:03:13.999Z,15.60
2023-03-08T16:05:41.264Z,15.50
2023-03-08T16:08:09.985Z,15.50
2023-03-08T16:10:41.181Z,15.60
2023-03-08T16:13:08.745Z,15.60
2023-03-08T16:15:40.687Z,15.70
2023-03-08T16:18:08.222Z,15.60
2023-03-08T16:20:35.673Z,15.70
2023-03-08T16:23:03.406Z,15.60
2023-03-08T16:25:30.726Z,15.60
2023-03-08T16:27:58.009Z,15.60
2023-03-08T16:30:25.320Z,15.50
2023-03-08T16:32:54.537Z,15.50
2023-03-08T16:35:21.982Z,15.50
2023-03-08T16:37:49.499Z,15.50
2023-03-08T16:40:17.089Z,15.50
2023-03-08T16:42:45.146Z,15.40
2023-03-08T16:45:16.193Z,15.30
2023-03-08T16:47:44.590Z,15.40
2023-03-08T16:50:14.217Z,15.30
2023-03-08T16:52:48.694Z,15.20
2023-03-08T16:55:16.168Z,15.20
2023-03-08T16:57:43.437Z,15.20
2023-03-08T17:00:13.022Z,15.20
2023-03-08T17:02:41.072Z,15.20
2023-03-08T17:05:11.132Z,15.10
2023-03-08T17:07:38.724Z,15.10
2023-03-08T17:10:06.729Z,15.00
2023-03-08T17:12:34.085Z,15.00
2023-03-08T17:15:04.690Z,15.00
2023-03-08T17:17:32.210Z,15.00
2023-03-08T17:20:00.560Z,14.90
2023-03-08T17:22:27.925Z,14.90
2023-03-08T17:24:55.267Z,14.80
2023-03-08T17:27:23.164Z,14.80
2023-03-08T17:29:50.465Z,14.90
2023-03-08T17:32:18.384Z,14.90
2023-03-08T17:34:45.687Z,14.90
2023-03-08T17:37:12.997Z,14.90
2023-03-08T17:39:40.353Z,14.90
2023-03-08T17:42:10.653Z,14.90
2023-03-08T17:44:37.921Z,14.90
2023-03-08T17:47:05.567Z,14.80
2023-03-08T17:49:33.501Z,14.80
2023-03-08T17:52:00.839Z,14.80
2023-03-08T17:54:28.431Z,14.90
2023-03-08T17:56:55.941Z,14.80
2023-03-08T17:59:23.422Z,14.80
2023-03-08T18:01:50.695Z,14.80
2023-03-08T18:04:19.079Z,14.90
2023-03-08T18:06:46.447Z,14.90
2023-03-08T18:09:16.146Z,14.80
2023-03-08T18:11:43.634Z,14.80
2023-03-08T18:14:13.372Z,14.80
2023-03-08T18:16:41.657Z,14.80
2023-03-08T18:19:21.150Z,14.80
2023-03-08T18:21:54.136Z,14.70
2023-03-08T18:24:21.921Z,14.80
2023-03-08T18:26:50.001Z,14.70
2023-03-08T18:29:17.992Z,14.70
2023-03-08T18:31:45.693Z,14.70
2023-03-08T18:34:13.041Z,14.70
2023-03-08T18:36:40.915Z,14.60
2023-03-08T18:39:12.238Z,14.60
2023-03-08T18:41:39.935Z,14.60
2023-03-08T18:44:07.379Z,14.50
2023-03-08T18:46:34.815Z,14.40
2023-03-08T18:49:08.131Z,14.50
2023-03-08T18:51:37.659Z,14.50
2023-03-08T18:54:05.880Z,14.50
2023-03-08T18:56:33.216Z,14.50
2023-03-08T18:59:03.185Z,14.50
2023-03-08T19:01:31.410Z,14.50
2023-03-08T19:04:00.259Z,14.40
2023-03-08T19:06:27.774Z,14.50
2023-03-08T19:08:54.973Z,14.50
2023-03-08T19:11:25.005Z,14.50
2023-03-08T19:13:52.374Z,14.50
2023-03-08T19:16:25.778Z,14.50
2023-03-08T19:18:59.046Z,14.50
2023-03-08T19:21:35.936Z,14.40
2023-03-08T19:24:03.992Z,14.40
2023-03-08T19:26:36.850Z,14.40
2023-03-08T19:29:13.342Z,14.40
2023-03-08T19:31:58.845Z,14.40
2023-03-08T19:34:32.805Z,14.30
2023-03-08T19:37:01.177Z,14.20
2023-03-08T19:39:30.843Z,14.20
2023-03-08T19:42:00.538Z,14.20
2023-03-08T19:44:28.620Z,14.20
2023-03-08T19:46:56.427Z,14.20
2023-03-08T19:49:29.364Z,14.20
2023-03-08T19:51:58.832Z,14.20
2023-03-08T19:54:27.241Z,14.10
2023-03-08T19:56:55.122Z,14.10
2023-03-08T19:59:23.898Z,14.10
2023-03-08T20:01:54.072Z,14.10
2023-03-08T20:04:22.589Z,14.10
2023-03-08T20:06:50.778Z,14.10
2023-03-08T20:09:21.698Z,14.10
2023-03-08T20:11:53.056Z,14.10
2023-03-08T20:14:21.506Z,14.20
2023-03-08T20:16:49.192Z,14.10
2023-03-08T20:19:17.677Z,14.20
2023-03-08T20:21:45.087Z,14.10
2023-03-08T20:24:13.437Z,14.10
2023-03-08T20:26:41.951Z,14.20
2023-03-08T20:29:09.326Z,14.00
2023-03-08T20:31:36.532Z,14.00
2023-03-08T20:34:03.854Z,13.90
2023-03-08T20:36:31.193Z,13.90
2023-03-08T20:38:59.127Z,13.90
2023-03-08T20:41:27.350Z,14.00
2023-03-08T20:43:57.575Z,13.90
2023-03-08T20:46:30.948Z,14.00
2023-03-08T20:48:58.782Z,13.90
2023-03-08T20:51:26.263Z,13.90
2023-03-08T20:53:54.662Z,13.90
2023-03-08T20:56:24.196Z,13.90
2023-03-08T20:58:54.702Z,13.80
2023-03-08T21:01:28.221Z,13.80
2023-03-08T21:03:55.681Z,13.80
2023-03-08T21:06:26.147Z,13.80
2023-03-08T21:08:53.712Z,13.80
2023-03-08T21:11:22.056Z,13.80
2023-03-08T21:13:51.231Z,13.80
2023-03-08T21:16:21.347Z,13.80
2023-03-08T21:18:50.538Z,13.80
2023-03-08T21:21:39.314Z,13.80
2023-03-08T21:24:15.442Z,13.80
2023-03-08T21:26:43.842Z,13.80
2023-03-08T21:29:14.168Z,13.80
2023-03-08T21:31:43.789Z,13.90
2023-03-08T21:34:12.354Z,13.80
2023-03-08T21:36:40.454Z,13.80
2023-03-08T21:39:09.108Z,13.80
2023-03-08T21:41:38.336Z,13.80
2023-03-08T21:44:09.464Z,13.80
2023-03-08T21:46:39.268Z,13.80
2023-03-08T21:49:07.431Z,13.80
2023-03-08T21:51:35.897Z,13.80
2023-03-08T21:54:03.449Z,13.80
2023-03-08T21:56:31.712Z,13.80
2023-03-08T21:58:59.733Z,13.80
2023-03-08T22:01:29.277Z,13.80
2023-03-08T22:03:57.024Z,13.80
2023-03-08T22:06:25.503Z,13.80
2023-03-08T22:08:52.780Z,13.70
2023-03-08T22:11:21.635Z,13.70
2023-03-08T22:13:54.487Z,13.80
2023-03-08T22:16:22.059Z,13.70
2023-03-08T22:18:55.965Z,13.80
2023-03-08T22:21:23.962Z,13.80
2023-03-08T22:23:56.210Z,13.70
2023-03-08T22:26:24.673Z,13.70
2023-03-08T22:28:53.876Z,13.70
2023-03-08T22:31:25.228Z,13.70
2023-03-08T22:33:52.808Z,13.70
2023-03-08T22:36:20.572Z,13.70
2023-03-08T22:38:48.386Z,13.70
2023-03-08T22:41:19.729Z,13.70
2023-03-08T22:43:47.742Z,13.70
2023-03-08T22:46:18.101Z,13.70
2023-03-08T22:48:46.775Z,13.70
2023-03-08T22:51:16.368Z,13.70
2023-03-08T22:53:43.656Z,13.70
2023-03-08T22:56:21.982Z,13.70
2023-03-08T22:58:50.014Z,13.70
2023-03-08T23:01:20.503Z,13.70
2023-03-08T23:03:49.586Z,13.70
2023-03-08T23:06:18.104Z,13.70
2023-03-08T23:08:46.328Z,13.70
2023-03-08T23:11:14.128Z,13.60
2023-03-08T23:13:41.846Z,13.60
2023-03-08T23:16:12.804Z,13.60
2023-03-08T23:18:41.277Z,13.60
2023-03-08T23:21:14.523Z,13.50
2023-03-08T23:23:42.620Z,13.50
2023-03-08T23:26:16.942Z,13.50
2023-03-08T23:28:44.256Z,13.60
2023-03-08T23:31:14.677Z,13.60
2023-03-08T23:33:42.618Z,13.60
2023-03-08T23:36:11.529Z,13.50
2023-03-08T23:38:39.002Z,13.60
2023-03-08T23:41:08.393Z,13.50
2023-03-08T23:43:37.037Z,13.60
2023-03-08T23:46:10.708Z,13.50
2023-03-08T23:48:38.050Z,13.50
2023-03-08T23:51:07.528Z,13.50
2023-03-08T23:53:35.128Z,13.50
2023-03-08T23:56:02.697Z,13.50
2023-03-08T23:58:30.051Z,13.50
